Time;durP1;ratioP1;P1;durP2;ratioP2;P2;SDS_P1;SDS_P2;PMS_P1;PMS_P2;Temp;Humidity;BMP_temperature;BMP_pressure;BME280_temperature;BME280_humidity;BME280_pressure;Samples;Min_cycle;Max_cycle;Signal;HPM_P1;HPM_P2
2021/01/16 00:00:15;;;;;;;97.50;42.83;;;;;;;-0.54;74.81;100891.08;2997487;78;21147;-62
2021/01/16 00:04:20;;;;;;;42.25;22.73;;;;;;;-0.54;74.92;100889.77;2975413;78;21654;-61
2021/01/16 00:08:24;;;;;;;51.08;16.25;;;;;;;-0.54;75.10;100891.08;2989952;78;21625;-60
2021/01/16 00:12:27;;;;;;;36.93;19.23;;;;;;;-0.61;74.93;100886.89;3020317;78;21547;-60
2021/01/16 00:16:29;;;;;;;41.33;19.92;;;;;;;-0.54;75.10;100884.55;3021293;78;21125;-60
2021/01/16 00:20:35;;;;;;;38.33;19.48;;;;;;;-0.52;74.98;100894.51;3008325;78;21128;-60
2021/01/16 00:24:38;;;;;;;28.40;15.90;;;;;;;-0.57;74.92;100888.55;3008976;78;21136;-61
2021/01/16 00:28:40;;;;;;;14.83;8.53;;;;;;;-0.57;74.95;100893.78;2995573;78;21152;-62
2021/01/16 00:32:43;;;;;;;11.80;5.70;;;;;;;-0.52;75.28;100891.02;2981096;78;21153;-61
2021/01/16 00:36:47;;;;;;;11.30;7.22;;;;;;;-0.58;75.21;100901.21;3023299;78;21117;-60
2021/01/16 00:40:50;;;;;;;10.05;6.53;;;;;;;-0.56;75.32;100894.62;2994855;78;21156;-61
2021/01/16 00:44:53;;;;;;;9.35;3.65;;;;;;;-0.62;75.14;100900.86;3012487;78;21141;-61
2021/01/16 00:48:57;;;;;;;14.83;6.95;;;;;;;-0.59;75.67;100903.38;3009361;78;21176;-61
2021/01/16 00:53:00;;;;;;;8.25;4.28;;;;;;;-0.58;75.70;100905.13;2998176;78;21104;-61
2021/01/16 00:57:03;;;;;;;7.35;5.72;;;;;;;-0.62;75.54;100903.47;2986377;78;21203;-60
2021/01/16 01:01:06;;;;;;;7.50;5.08;;;;;;;-0.72;75.52;100898.92;2976711;78;21594;-60
2021/01/16 01:05:16;;;;;;;7.87;5.53;;;;;;;-0.80;75.76;100903.49;2987708;78;21168;-60
2021/01/16 01:09:19;;;;;;;9.15;5.58;;;;;;;-0.89;75.96;100913.25;2995325;78;21144;-60
2021/01/16 01:13:23;;;;;;;8.45;5.30;;;;;;;-0.95;76.23;100917.79;2986616;78;21127;-61
2021/01/16 01:17:26;;;;;;;8.43;4.95;;;;;;;-0.99;76.32;100918.30;3002676;78;21626;-61
2021/01/16 01:21:29;;;;;;;8.93;4.78;;;;;;;-1.03;76.58;100922.73;2992818;78;21140;-60
2021/01/16 01:25:32;;;;;;;22.82;12.40;;;;;;;-1.03;77.28;100907.05;3002129;78;21650;-61
2021/01/16 01:29:35;;;;;;;10.03;6.83;;;;;;;-1.00;77.45;100907.44;2977890;78;21124;-59
2021/01/16 01:33:38;;;;;;;14.85;9.58;;;;;;;-1.01;77.57;100907.87;2988441;78;21140;-60
2021/01/16 01:37:43;;;;;;;8.08;5.15;;;;;;;-0.99;77.77;100906.55;2991633;78;21169;-60
2021/01/16 01:41:46;;;;;;;6.20;5.00;;;;;;;-0.98;77.56;100901.73;3001952;78;21117;-62
2021/01/16 01:45:49;;;;;;;9.90;6.67;;;;;;;-1.05;77.46;100906.23;2986712;78;21129;-60
2021/01/16 01:49:54;;;;;;;9.03;5.33;;;;;;;-1.08;77.18;100905.02;3014456;78;21133;-61
2021/01/16 01:53:59;;;;;;;16.35;5.50;;;;;;;-1.09;77.13;100907.21;3013253;78;21147;-62
2021/01/16 01:58:02;;;;;;;7.65;5.08;;;;;;;-1.24;76.92;100911.47;2988471;78;21705;-61
2021/01/16 02:02:05;;;;;;;10.32;5.72;;;;;;;-1.14;77.08;100892.11;2968432;78;21139;-61
2021/01/16 02:06:09;;;;;;;6.42;4.20;;;;;;;-1.18;77.25;100905.67;2997425;78;21159;-60
2021/01/16 02:10:22;;;;;;;9.20;5.35;;;;;;;-1.19;77.33;100907.00;2958216;80;21566;-60
2021/01/16 02:14:30;;;;;;;9.75;4.85;;;;;;;-1.18;77.65;100910.02;2973882;80;21641;-60
2021/01/16 02:18:46;;;;;;;6.53;4.70;;;;;;;-1.21;78.04;100903.56;2971147;80;21128;-61
2021/01/16 02:23:19;;;;;;;9.18;5.35;;;;;;;-1.18;78.48;100904.37;2953972;78;21629;-62
2021/01/16 02:27:49;;;;;;;9.03;5.55;;;;;;;-1.17;78.27;100906.55;2949362;80;21123;-60
2021/01/16 02:32:05;;;;;;;21.33;8.08;;;;;;;-1.17;78.34;100907.84;2990455;78;21185;-61
2021/01/16 02:36:36;;;;;;;7.13;5.00;;;;;;;-1.15;78.30;100888.63;2966615;79;21202;-60
2021/01/16 02:40:53;;;;;;;5.67;3.85;;;;;;;-1.12;77.67;100902.06;2966996;79;21854;-61
2021/01/16 02:45:06;;;;;;;4.87;3.12;;;;;;;-1.15;77.63;100899.53;2950111;79;21435;-60
2021/01/16 02:49:34;;;;;;;7.45;5.28;;;;;;;-1.15;77.21;100900.38;2967596;79;21143;-60
2021/01/16 02:53:38;;;;;;;5.80;3.75;;;;;;;-1.15;77.26;100903.45;2968455;79;21154;-61
2021/01/16 02:57:42;;;;;;;8.18;4.33;;;;;;;-1.16;76.94;100905.65;2952892;79;21159;-62
2021/01/16 03:01:47;;;;;;;4.53;3.70;;;;;;;-1.28;76.73;100906.76;2968485;79;21162;-61
2021/01/16 03:05:50;;;;;;;11.12;5.05;;;;;;;-1.23;76.47;100906.66;2968476;79;21653;-61
2021/01/16 03:09:56;;;;;;;10.45;4.62;;;;;;;-1.18;76.58;100908.71;2968493;79;21190;-61
2021/01/16 03:14:02;;;;;;;7.10;5.45;;;;;;;-1.12;76.33;100903.38;2968756;79;21120;-60
2021/01/16 03:18:08;;;;;;;5.78;4.75;;;;;;;-1.13;76.19;100911.23;2968180;79;22284;-62
2021/01/16 03:22:25;;;;;;;5.58;3.83;;;;;;;-1.20;76.01;100906.16;2967127;79;21175;-62
2021/01/16 03:26:28;;;;;;;6.85;3.20;;;;;;;-1.24;76.13;100915.39;2965927;79;21170;-62
2021/01/16 03:30:31;;;;;;;5.10;4.03;;;;;;;-1.28;75.98;100914.59;2966467;79;21645;-60
2021/01/16 03:34:36;;;;;;;4.97;2.95;;;;;;;-1.28;76.14;100911.14;2968574;79;21612;-59
2021/01/16 03:38:39;;;;;;;2.30;1.75;;;;;;;-1.26;76.15;100911.95;2967437;79;21143;-60
2021/01/16 03:42:43;;;;;;;4.45;3.58;;;;;;;-1.36;75.99;100912.18;2968194;79;21119;-62
2021/01/16 03:46:46;;;;;;;8.38;4.10;;;;;;;-1.24;76.07;100909.73;2967133;79;21138;-59
2021/01/16 03:50:49;;;;;;;5.35;3.45;;;;;;;-1.25;75.99;100901.92;2965792;79;21151;-61
2021/01/16 03:54:54;;;;;;;4.80;2.70;;;;;;;-1.27;75.88;100906.33;2967607;79;21127;-61
2021/01/16 03:58:57;;;;;;;8.50;3.45;;;;;;;-1.23;75.76;100904.05;2967492;79;21143;-62
2021/01/16 04:03:00;;;;;;;4.00;3.02;;;;;;;-1.22;75.81;100909.69;2969167;77;21188;-60
2021/01/16 04:07:06;;;;;;;8.15;3.65;;;;;;;-1.27;75.79;100914.16;2965449;79;21549;-60
2021/01/16 04:11:10;;;;;;;6.92;3.30;;;;;;;-1.28;75.74;100909.83;2876111;80;21140;-61
2021/01/16 04:15:14;;;;;;;8.75;2.72;;;;;;;-1.32;75.83;100905.99;2898521;81;21144;-61
2021/01/16 04:19:16;;;;;;;7.30;3.75;;;;;;;-1.33;75.97;100904.27;2915874;81;21199;-61
2021/01/16 04:23:19;;;;;;;6.35;4.62;;;;;;;-1.30;76.12;100902.89;2916115;80;21153;-60
2021/01/16 04:27:22;;;;;;;6.87;4.28;;;;;;;-1.23;75.95;100906.66;2907979;81;21156;-61
2021/01/16 04:31:25;;;;;;;5.75;4.87;;;;;;;-1.24;75.86;100895.81;2894071;80;21164;-62
2021/01/16 04:35:28;;;;;;;5.75;4.40;;;;;;;-1.23;75.87;100901.01;2903328;81;21152;-60
2021/01/16 04:39:31;;;;;;;5.58;4.15;;;;;;;-1.21;75.95;100895.30;2896016;80;21155;-60
2021/01/16 04:43:34;;;;;;;4.45;3.17;;;;;;;-1.19;76.12;100897.86;2898655;80;21161;-61
2021/01/16 04:47:42;;;;;;;4.45;3.37;;;;;;;-1.31;76.26;100899.88;2900153;81;21160;-60
2021/01/16 04:51:48;;;;;;;8.85;4.55;;;;;;;-1.37;77.22;100905.67;2877764;81;21160;-60
2021/01/16 04:55:52;;;;;;;13.83;6.83;;;;;;;-1.48;76.96;100909.83;2905401;81;21169;-61
2021/01/16 04:59:57;;;;;;;10.03;6.20;;;;;;;-1.49;76.76;100906.80;2905911;81;21667;-61
2021/01/16 05:04:00;;;;;;;7.87;6.12;;;;;;;-1.49;76.82;100906.34;2904376;81;21176;-61
2021/01/16 05:08:05;;;;;;;8.45;5.87;;;;;;;-1.55;76.63;100896.05;2886110;81;21173;-60
2021/01/16 05:12:53;;;;;;;6.85;4.47;;;;;;;-1.50;76.78;100902.48;2905737;81;21152;-60
2021/01/16 05:16:59;;;;;;;6.72;4.42;;;;;;;-1.53;76.89;100907.77;2880788;80;21129;-61
2021/01/16 05:21:12;;;;;;;7.80;5.92;;;;;;;-1.51;77.93;100898.16;3125844;76;23385;-59
2021/01/16 05:25:15;;;;;;;6.15;5.55;;;;;;;-1.61;78.16;100897.50;3078334;77;21124;-59
2021/01/16 05:29:24;;;;;;;25.37;5.35;;;;;;;-1.58;78.16;100894.35;3077938;77;21097;-58
2021/01/16 05:33:32;;;;;;;8.15;6.33;;;;;;;-1.56;78.20;100894.80;3078138;77;21140;-60
2021/01/16 05:37:36;;;;;;;8.23;5.15;;;;;;;-1.50;78.02;100893.34;3078285;77;21145;-59
2021/01/16 05:41:40;;;;;;;13.50;8.13;;;;;;;-1.59;77.82;100897.86;3078369;77;21418;-60
2021/01/16 05:45:45;;;;;;;23.12;12.03;;;;;;;-1.61;77.86;100897.50;3000902;78;21121;-59
2021/01/16 05:49:48;;;;;;;16.85;12.15;;;;;;;-1.61;77.72;100892.28;3022254;78;21101;-59
2021/01/16 05:53:55;;;;;;;20.48;12.85;;;;;;;-1.58;77.65;100894.35;3022710;78;21404;-60
2021/01/16 05:58:08;;;;;;;30.20;12.75;;;;;;;-1.56;77.77;100903.92;3022503;78;21132;-60
2021/01/16 06:02:13;;;;;;;23.05;11.83;;;;;;;-1.58;77.58;100900.88;2983295;78;21109;-60
2021/01/16 06:06:17;;;;;;;22.58;8.53;;;;;;;-1.59;77.63;100900.47;2949746;80;21165;-59
2021/01/16 06:10:22;;;;;;;10.60;8.05;;;;;;;-1.67;77.93;100898.91;2968297;78;21105;-59
2021/01/16 06:14:47;;;;;;;66.05;24.52;;;;;;;-1.67;77.45;100899.78;3027541;78;21132;-59
2021/01/16 06:18:57;;;;;;;7.22;5.55;;;;;;;-1.76;76.78;100896.08;2884846;82;21754;-59
2021/01/16 06:23:06;;;;;;;17.27;8.35;;;;;;;-1.65;76.95;100899.77;2885056;82;21595;-59
2021/01/16 06:27:14;;;;;;;8.60;4.40;;;;;;;-1.70;76.67;100885.50;2883606;82;21116;-59
2021/01/16 06:31:29;;;;;;;7.87;4.20;;;;;;;-1.79;77.18;100876.55;2882377;82;21133;-59
2021/01/16 06:35:38;;;;;;;7.53;5.00;;;;;;;-1.83;77.20;100884.91;2884096;82;21642;-60
2021/01/16 06:39:47;;;;;;;29.90;18.87;;;;;;;-1.85;76.93;100890.60;2856656;82;21161;-61
2021/01/16 06:43:53;;;;;;;18.80;9.43;;;;;;;-1.90;76.39;100897.64;2883003;82;21095;-60
2021/01/16 06:48:01;;;;;;;16.90;9.55;;;;;;;-1.92;75.96;100893.77;2881453;82;21174;-59
2021/01/16 06:52:07;;;;;;;23.67;12.45;;;;;;;-1.93;75.63;100890.75;2880915;82;21533;-60
2021/01/16 06:56:14;;;;;;;15.53;9.05;;;;;;;-1.98;75.54;100904.30;2881453;82;21589;-61
2021/01/16 07:00:17;;;;;;;12.07;8.25;;;;;;;-1.96;75.54;100904.29;2881175;82;21182;-58
2021/01/16 07:04:22;;;;;;;9.40;6.17;;;;;;;-1.98;75.05;100889.13;2881270;82;21154;-59
2021/01/16 07:08:28;;;;;;;7.72;5.22;;;;;;;-2.00;74.80;100882.62;2881036;82;21134;-59
2021/01/16 07:12:31;;;;;;;12.80;7.05;;;;;;;-2.08;74.66;100892.36;2881204;82;21604;-60
2021/01/16 07:16:36;;;;;;;8.58;6.20;;;;;;;-2.11;74.59;100895.03;2870575;82;21635;-59
2021/01/16 07:20:40;;;;;;;14.45;8.08;;;;;;;-2.16;74.23;100901.63;2856361;83;21137;-60
2021/01/16 07:24:45;;;;;;;8.35;5.45;;;;;;;-2.18;73.96;100904.25;2856235;83;21172;-61
2021/01/16 07:28:50;;;;;;;13.75;8.30;;;;;;;-2.17;73.96;100902.05;2855941;83;21169;-59
2021/01/16 07:33:01;;;;;;;8.03;4.72;;;;;;;-2.20;73.79;100907.80;2856485;82;21097;-60
2021/01/16 07:37:05;;;;;;;10.55;6.47;;;;;;;-2.21;73.25;100901.70;2856470;83;21188;-59
2021/01/16 07:41:09;;;;;;;6.87;5.20;;;;;;;-2.37;72.46;100900.27;2855867;83;21149;-59
2021/01/16 07:45:18;;;;;;;4.85;2.90;;;;;;;-2.52;72.28;100900.11;2856470;83;21439;-60
2021/01/16 07:49:26;;;;;;;7.45;3.52;;;;;;;-2.74;72.62;100900.05;2856629;83;21173;-61
2021/01/16 07:53:30;;;;;;;5.00;3.45;;;;;;;-2.85;72.86;100898.05;2855932;83;21161;-60
2021/01/16 07:57:33;;;;;;;10.40;5.67;;;;;;;-2.96;73.04;100906.46;2856109;83;21635;-61
2021/01/16 08:01:56;;;;;;;7.83;4.37;;;;;;;-2.96;74.11;100899.95;2856441;83;21200;-60
2021/01/16 08:06:45;;;;;;;12.25;6.67;;;;;;;-2.74;74.39;100901.78;2856338;83;21592;-59
2021/01/16 08:10:47;;;;;;;;;;;;;;;-2.49;74.36;100889.62;2859229;83;21587;-59
2021/01/16 08:14:52;;;;;;;10.65;5.15;;;;;;;-2.19;73.78;100888.20;2856424;83;20164;-59
2021/01/16 08:19:23;;;;;;;9.45;5.28;;;;;;;-1.87;74.08;100888.44;2855092;82;21160;-59
2021/01/16 08:23:25;;;;;;;7.58;5.17;;;;;;;-1.77;73.54;100878.67;2854905;83;21145;-59
2021/01/16 08:27:35;;;;;;;12.60;6.15;;;;;;;-1.81;73.30;100877.91;2855617;83;21165;-57
2021/01/16 08:31:40;;;;;;;6.97;4.65;;;;;;;-1.94;73.42;100873.39;2854970;82;21181;-60
2021/01/16 08:35:48;;;;;;;9.30;5.33;;;;;;;-2.12;74.39;100869.39;2854102;82;21173;-58
2021/01/16 08:39:52;;;;;;;13.75;7.92;;;;;;;-2.10;75.09;100882.41;2854662;82;21172;-59
2021/01/16 08:43:57;;;;;;;9.40;5.62;;;;;;;-1.98;75.88;100874.78;2854732;83;21177;-62
2021/01/16 08:48:01;;;;;;;10.70;7.28;;;;;;;-1.85;76.27;100874.08;2855057;83;21611;-59
2021/01/16 08:52:05;;;;;;;13.45;6.28;;;;;;;-1.73;76.02;100866.02;2854789;83;21185;-59
2021/01/16 08:56:23;;;;;;;9.33;6.97;;;;;;;-1.56;75.96;100872.16;2854782;83;21576;-60
2021/01/16 09:00:29;;;;;;;12.18;6.37;;;;;;;-1.33;75.55;100865.13;2855134;83;21149;-60
2021/01/16 09:04:34;;;;;;;8.38;7.35;;;;;;;-1.18;74.64;100857.37;2855006;83;21161;-61
2021/01/16 09:08:43;;;;;;;7.22;4.90;;;;;;;-0.99;74.25;100849.09;2854929;83;21180;-61
2021/01/16 09:12:47;;;;;;;8.88;5.83;;;;;;;-0.78;74.09;100850.32;2855475;83;21595;-60
2021/01/16 09:16:50;;;;;;;7.60;6.95;;;;;;;-0.60;72.90;100846.80;2874483;81;21202;-60
2021/01/16 09:20:58;;;;;;;7.90;5.30;;;;;;;-0.70;73.45;100843.56;2907875;81;21162;-61
2021/01/16 09:25:25;;;;;;;8.95;5.15;;;;;;;-0.56;73.02;100859.34;2907884;81;21174;-59
2021/01/16 09:29:28;;;;;;;12.15;6.22;;;;;;;-0.49;72.68;100859.14;2881742;82;21132;-61
2021/01/16 09:33:31;;;;;;;8.30;5.15;;;;;;;-0.40;72.53;100859.34;2831512;84;21172;-61
2021/01/16 09:37:36;;;;;;;7.08;5.25;;;;;;;-0.31;71.81;100847.31;2832029;84;21635;-61
2021/01/16 09:41:38;;;;;;;8.75;5.03;;;;;;;-0.23;72.37;100838.42;2831521;84;21184;-59
2021/01/16 09:46:00;;;;;;;6.17;5.33;;;;;;;-0.20;72.22;100834.41;2831790;82;21724;-60
2021/01/16 09:50:11;;;;;;;11.05;6.83;;;;;;;-0.24;71.71;100829.70;2831744;83;21152;-60
2021/01/16 09:54:16;;;;;;;8.63;6.37;;;;;;;-0.34;71.27;100833.48;2819507;83;21135;-60
2021/01/16 09:58:40;;;;;;;10.00;5.47;;;;;;;-0.47;71.53;100829.89;2767491;86;22234;-61
2021/01/16 10:02:45;;;;;;;6.12;5.35;;;;;;;-0.74;71.69;100825.82;2775372;84;21667;-60
2021/01/16 10:06:49;;;;;;;9.35;5.70;;;;;;;-0.61;72.12;100817.64;2816937;84;21161;-58
2021/01/16 10:10:52;;;;;;;10.48;6.22;;;;;;;-0.74;72.05;100823.20;2780938;85;21138;-59
2021/01/16 10:14:58;;;;;;;9.58;7.78;;;;;;;-0.79;72.09;100811.16;2825288;84;21135;-60
2021/01/16 10:19:05;;;;;;;6.50;5.83;;;;;;;-0.64;72.18;100820.34;2762441;86;21194;-60
2021/01/16 10:23:08;;;;;;;8.68;6.10;;;;;;;-0.42;71.64;100802.77;2726965;87;21181;-59
2021/01/16 10:27:18;;;;;;;6.65;5.92;;;;;;;-0.25;70.93;100802.31;2808174;84;21206;-60
2021/01/16 10:31:26;;;;;;;8.10;6.00;;;;;;;-0.20;70.89;100796.48;2817373;84;21155;-59
2021/01/16 10:35:32;;;;;;;5.47;4.75;;;;;;;-0.27;70.72;100779.28;2820452;84;21203;-60
2021/01/16 10:39:39;;;;;;;10.53;7.95;;;;;;;-0.25;71.37;100776.16;2814767;84;21388;-60
2021/01/16 10:43:42;;;;;;;8.43;7.42;;;;;;;0.04;71.68;100770.51;2796028;83;21211;-61
2021/01/16 10:47:46;;;;;;;10.18;6.30;;;;;;;0.23;70.77;100768.20;2775141;85;21157;-60
2021/01/16 10:52:04;;;;;;;14.40;7.25;;;;;;;0.33;70.26;100762.23;2796656;85;21629;-59
2021/01/16 10:56:15;;;;;;;;;;;;;;;0.29;70.36;100745.75;2799810;84;21155;-60
2021/01/16 11:00:21;;;;;;;9.40;6.37;;;;;;;0.36;70.44;100743.34;2796905;85;20182;-62
2021/01/16 11:04:29;;;;;;;12.10;7.50;;;;;;;0.43;70.11;100733.53;2783519;85;21187;-58
2021/01/16 11:08:36;;;;;;;14.73;8.65;;;;;;;0.45;70.09;100723.86;2783769;85;21155;-60
2021/01/16 11:12:41;;;;;;;13.38;7.17;;;;;;;0.45;70.19;100707.31;2784102;85;21465;-59
2021/01/16 11:16:47;;;;;;;15.15;8.13;;;;;;;0.46;70.40;100699.39;2789548;83;21169;-61
2021/01/16 11:21:07;;;;;;;12.10;6.65;;;;;;;0.42;70.06;100691.25;2826312;84;21139;-59
2021/01/16 11:25:20;;;;;;;9.68;7.78;;;;;;;0.42;70.33;100680.78;2779721;85;21158;-57
2021/01/16 11:29:28;;;;;;;10.63;6.87;;;;;;;0.48;70.92;100685.80;2832204;83;21176;-59
2021/01/16 11:33:32;;;;;;;13.15;6.60;;;;;;;0.42;70.46;100677.72;2850469;83;21117;-58
2021/01/16 11:42:08;;;;;;;15.55;10.65;;;;;;;0.53;71.30;100681.29;3116813;76;23446;-57
2021/01/16 11:46:16;;;;;;;15.30;8.50;;;;;;;0.48;71.19;100674.02;3013430;77;21097;-59
2021/01/16 11:50:21;;;;;;;16.02;9.08;;;;;;;0.51;71.40;100675.69;3006929;79;21097;-58
2021/01/16 11:54:27;;;;;;;18.60;10.88;;;;;;;0.56;71.68;100665.47;3007300;78;21116;-57
2021/01/16 11:58:36;;;;;;;8.55;7.10;;;;;;;0.62;71.21;100652.62;3006913;79;21146;-57
2021/01/16 12:02:40;;;;;;;15.10;9.18;;;;;;;0.63;71.03;100639.94;3006486;79;21105;-59
2021/01/16 12:06:45;;;;;;;16.23;10.90;;;;;;;0.59;70.99;100640.09;3006946;79;21130;-57
2021/01/16 12:10:52;;;;;;;10.85;7.80;;;;;;;0.58;71.62;100624.82;3006448;79;21133;-58
2021/01/16 12:14:55;;;;;;;11.45;8.18;;;;;;;0.56;71.63;100625.33;3006638;79;21143;-58
2021/01/16 12:19:00;;;;;;;14.98;9.53;;;;;;;0.59;71.97;100617.83;3006641;79;21137;-59
2021/01/16 12:23:05;;;;;;;14.87;11.25;;;;;;;0.52;72.05;100614.13;3006625;79;21125;-58
2021/01/16 12:27:09;;;;;;;14.30;8.17;;;;;;;0.52;72.11;100604.09;3007151;79;21100;-60
2021/01/16 12:31:25;;;;;;;19.27;10.60;;;;;;;0.48;72.02;100560.62;3006864;79;21770;-60
2021/01/16 12:35:29;;;;;;;;;;;;;;;0.52;71.57;100579.23;3009358;79;21156;-60
2021/01/16 12:39:34;;;;;;;16.07;11.25;;;;;;;0.36;71.76;100574.53;3006401;79;20160;-59
2021/01/16 12:43:37;;;;;;;16.67;11.55;;;;;;;0.35;72.34;100574.12;3006732;79;21154;-59
2021/01/16 12:47:42;;;;;;;14.85;8.85;;;;;;;0.32;72.59;100572.09;3006623;79;21153;-58
2021/01/16 12:51:47;;;;;;;15.60;11.68;;;;;;;0.27;72.80;100563.08;3006166;79;21181;-59
2021/01/16 12:55:51;;;;;;;13.28;9.88;;;;;;;0.16;73.64;100569.99;3005639;79;21129;-60
2021/01/16 12:59:55;;;;;;;21.20;11.55;;;;;;;-0.02;74.76;100570.14;3005676;79;21133;-61
2021/01/16 13:04:00;;;;;;;20.05;12.47;;;;;;;-0.07;75.40;100564.22;3005747;79;21426;-60
2021/01/16 13:08:14;;;;;;;17.45;11.05;;;;;;;-0.11;75.93;100564.76;3005532;79;21149;-60
2021/01/16 13:12:21;;;;;;;17.60;11.43;;;;;;;-0.18;76.54;100550.19;3005446;79;22207;-60
2021/01/16 13:16:29;;;;;;;14.85;8.90;;;;;;;-0.26;77.59;100553.05;3005794;79;21611;-60
2021/01/16 13:20:35;;;;;;;19.00;13.62;;;;;;;-0.39;78.29;100560.44;3002948;77;21130;-61
2021/01/16 13:24:38;;;;;;;21.87;11.55;;;;;;;-0.32;78.10;100558.48;2978161;79;21563;-60
2021/01/16 13:28:42;;;;;;;16.50;11.15;;;;;;;-0.24;77.74;100559.08;3008578;79;21602;-60
2021/01/16 13:32:47;;;;;;;15.93;11.60;;;;;;;-0.22;77.41;100559.88;2955146;80;21108;-60
2021/01/16 13:36:51;;;;;;;16.37;10.85;;;;;;;-0.24;77.27;100564.31;2955318;80;21120;-61
2021/01/16 13:41:04;;;;;;;23.52;13.43;;;;;;;-0.29;77.62;100562.30;2955490;80;21595;-60
2021/01/16 13:45:09;;;;;;;20.20;12.40;;;;;;;-0.25;77.80;100560.45;3003082;77;21070;-61
2021/01/16 13:49:27;;;;;;;17.15;9.95;;;;;;;-0.23;78.24;100559.48;3006570;79;21141;-61
2021/01/16 13:53:32;;;;;;;18.98;10.90;;;;;;;-0.26;78.68;100554.36;3006347;79;21125;-59
2021/01/16 13:57:36;;;;;;;16.42;12.88;;;;;;;-0.31;79.40;100559.73;3006380;79;21539;-60
2021/01/16 14:01:41;;;;;;;20.82;14.13;;;;;;;-0.28;79.24;100566.63;3006371;79;21576;-60
2021/01/16 14:05:45;;;;;;;16.27;12.33;;;;;;;-0.35;79.57;100562.52;3006467;77;21157;-60
2021/01/16 14:09:48;;;;;;;18.30;11.45;;;;;;;-0.31;79.32;100558.42;3007385;77;21168;-60
2021/01/16 14:13:51;;;;;;;17.77;13.05;;;;;;;-0.30;79.22;100553.59;3007358;77;21137;-60
2021/01/16 14:17:54;;;;;;;22.93;11.40;;;;;;;-0.28;79.48;100551.41;3009230;79;21744;-59
2021/01/16 14:21:58;;;;;;;16.55;10.20;;;;;;;-0.36;79.80;100543.81;3008264;77;21116;-59
2021/01/16 14:26:24;;;;;;;16.48;9.98;;;;;;;-0.36;79.80;100545.95;3002757;78;21090;-60
2021/01/16 14:30:32;;;;;;;19.10;13.40;;;;;;;-0.47;80.24;100552.00;3006571;79;21097;-60
2021/01/16 14:34:41;;;;;;;20.68;12.28;;;;;;;-0.52;80.89;100531.66;3006323;79;21097;-60
2021/01/16 14:38:45;;;;;;;13.62;11.35;;;;;;;-0.55;81.16;100527.41;3006628;79;21576;-60
2021/01/16 14:42:58;;;;;;;24.27;13.48;;;;;;;-0.42;81.33;100516.54;3005637;79;21137;-61
2021/01/16 14:47:05;;;;;;;17.57;11.85;;;;;;;-0.42;81.40;100502.16;3005444;79;21125;-60
2021/01/16 14:51:07;;;;;;;;;;;;;;;-0.45;81.62;100493.52;3048668;77;21129;-60
2021/01/16 14:55:13;;;;;;;17.60;10.28;;;;;;;-0.45;82.22;100483.54;3059035;77;20111;-61
2021/01/16 14:59:16;;;;;;;17.02;11.10;;;;;;;-0.49;82.62;100476.24;3058782;77;21132;-61
2021/01/16 15:03:36;;;;;;;20.80;11.85;;;;;;;-0.58;83.39;100470.02;3059069;77;21093;-60
2021/01/16 15:07:39;;;;;;;20.65;10.13;;;;;;;-0.58;83.99;100470.86;3059176;77;21122;-61
2021/01/16 15:11:53;;;;;;;17.65;10.28;;;;;;;-0.60;83.31;100465.27;3020766;77;21101;-62
2021/01/16 15:15:59;;;;;;;14.45;8.90;;;;;;;-0.64;83.46;100474.12;3006452;79;21161;-59
2021/01/16 15:20:02;;;;;;;15.00;10.88;;;;;;;-0.68;83.55;100463.38;3005554;78;21113;-62
2021/01/16 15:24:07;;;;;;;18.40;9.38;;;;;;;-0.74;83.64;100466.59;3006464;77;21558;-61
2021/01/16 15:28:10;;;;;;;33.95;11.33;;;;;;;-0.76;83.60;100447.94;3008572;79;21136;-60
2021/01/16 15:32:25;;;;;;;24.00;12.23;;;;;;;-0.78;84.34;100465.42;3008330;79;21610;-61
2021/01/16 15:36:31;;;;;;;12.63;9.43;;;;;;;-0.77;84.79;100461.47;3008184;79;21916;-61
2021/01/16 15:40:36;;;;;;;15.40;12.07;;;;;;;-0.76;84.57;100476.23;3008483;78;21559;-61
2021/01/16 15:44:39;;;;;;;20.08;12.60;;;;;;;-0.77;84.98;100465.83;3009111;77;21616;-62
2021/01/16 15:48:47;;;;;;;14.07;10.85;;;;;;;-0.81;84.57;100472.89;3009240;79;21539;-60
2021/01/16 15:52:56;;;;;;;23.52;13.28;;;;;;;-0.75;84.30;100477.95;3007396;79;21132;-61
2021/01/16 15:57:00;;;;;;;17.10;10.95;;;;;;;-0.77;83.99;100458.86;3006645;79;21125;-60
2021/01/16 16:01:40;;;;;;;19.98;12.55;;;;;;;-0.74;83.83;100452.22;3006453;79;21181;-60
2021/01/16 16:05:47;;;;;;;18.10;12.10;;;;;;;-0.73;83.73;100456.55;2831865;84;21132;-60
2021/01/16 16:09:50;;;;;;;25.05;16.85;;;;;;;-0.84;84.58;100465.62;2870098;83;21467;-60
2021/01/16 16:13:53;;;;;;;17.40;10.82;;;;;;;-0.86;83.37;100461.74;2869997;83;21575;-60
2021/01/16 16:17:56;;;;;;;18.12;13.20;;;;;;;-0.85;83.42;100434.72;2870128;83;21177;-60
2021/01/16 16:21:59;;;;;;;21.07;12.47;;;;;;;-0.85;83.24;100438.64;2870311;83;21145;-61
2021/01/16 16:26:06;;;;;;;21.77;12.20;;;;;;;-0.91;83.04;100433.63;2870097;82;21169;-61
2021/01/16 16:30:10;;;;;;;28.65;10.95;;;;;;;-0.92;82.70;100421.47;2870524;82;21105;-60
2021/01/16 16:34:13;;;;;;;16.52;13.28;;;;;;;-0.94;82.51;100412.36;2870298;82;21137;-60
2021/01/16 16:38:18;;;;;;;22.22;14.18;;;;;;;-0.98;82.41;100420.33;2869945;82;21168;-61
2021/01/16 16:42:21;;;;;;;18.05;10.68;;;;;;;-0.95;82.40;100408.52;2870335;82;21144;-61
2021/01/16 16:46:24;;;;;;;18.23;12.88;;;;;;;-0.94;82.04;100411.52;2852376;82;21181;-60
2021/01/16 16:50:27;;;;;;;19.25;10.78;;;;;;;-0.87;81.64;100430.00;2856609;83;21149;-60
2021/01/16 16:54:32;;;;;;;15.38;10.80;;;;;;;-0.88;81.24;100412.63;2824089;84;21787;-60
2021/01/16 16:58:35;;;;;;;16.87;12.47;;;;;;;-0.84;80.95;100407.69;2863968;82;21741;-59
2021/01/16 17:02:40;;;;;;;19.50;12.43;;;;;;;-0.88;81.06;100417.84;2857625;82;21170;-60
2021/01/16 17:06:47;;;;;;;12.35;8.68;;;;;;;-0.96;81.29;100375.00;2863792;82;21113;-60
2021/01/16 17:10:51;;;;;;;27.52;13.70;;;;;;;-0.92;81.27;100385.74;2871746;82;21153;-60
2021/01/16 17:14:55;;;;;;;18.90;10.90;;;;;;;-0.99;80.99;100367.70;2825705;84;21152;-60
2021/01/16 17:19:00;;;;;;;16.75;9.95;;;;;;;-1.03;80.90;100357.36;2847372;83;21147;-60
2021/01/16 17:23:04;;;;;;;17.90;12.07;;;;;;;-1.07;81.13;100384.95;2853593;82;21149;-59
2021/01/16 17:27:16;;;;;;;19.65;10.60;;;;;;;-1.12;81.28;100386.84;2866019;83;21622;-60
2021/01/16 17:31:43;;;;;;;15.95;12.00;;;;;;;-1.03;81.00;100388.70;2866230;83;21185;-60
2021/01/16 17:35:55;;;;;;;18.05;11.10;;;;;;;-0.99;80.75;100381.63;2866217;83;21610;-61
2021/01/16 17:40:00;;;;;;;20.95;11.33;;;;;;;-1.01;80.72;100355.55;2866334;82;21113;-61
2021/01/16 17:44:06;;;;;;;17.92;10.35;;;;;;;-0.96;80.42;100368.94;2825456;84;21721;-59
2021/01/16 17:48:12;;;;;;;15.23;10.10;;;;;;;-1.07;80.55;100366.20;2862030;83;21201;-61
2021/01/16 17:52:15;;;;;;;20.60;12.73;;;;;;;-1.01;80.40;100372.53;2850594;83;21162;-61
2021/01/16 17:56:18;;;;;;;25.30;13.98;;;;;;;-1.02;80.57;100362.98;2850522;83;21532;-60
2021/01/16 18:00:23;;;;;;;40.38;19.17;;;;;;;-1.12;80.27;100373.78;2850373;83;21185;-61
2021/01/16 18:04:29;;;;;;;20.23;13.05;;;;;;;-1.04;80.24;100385.69;2832245;82;21168;-61
2021/01/16 18:08:35;;;;;;;20.00;13.90;;;;;;;-1.05;80.83;100369.63;2805301;84;21573;-62
2021/01/16 18:12:46;;;;;;;18.02;11.18;;;;;;;-0.99;80.84;100361.17;2802029;84;21545;-59
2021/01/16 18:16:52;;;;;;;20.65;12.30;;;;;;;-0.99;80.52;100366.40;2814270;84;21137;-59
2021/01/16 18:20:56;;;;;;;17.12;12.53;;;;;;;-1.02;80.54;100357.77;2814297;84;21592;-59
2021/01/16 18:25:01;;;;;;;16.50;11.70;;;;;;;-0.95;80.55;100364.95;2806216;84;21195;-59
2021/01/16 18:29:08;;;;;;;41.55;16.20;;;;;;;-0.93;80.22;100355.31;2819113;84;21149;-61
2021/01/16 18:33:11;;;;;;;18.65;12.25;;;;;;;-0.91;80.04;100350.05;2774201;85;21181;-61
2021/01/16 18:37:16;;;;;;;18.23;11.57;;;;;;;-0.94;80.32;100356.69;2773783;85;21173;-61
2021/01/16 18:41:22;;;;;;;15.65;11.38;;;;;;;-0.96;80.02;100356.72;2773831;85;21207;-61
2021/01/16 18:45:25;;;;;;;29.32;14.28;;;;;;;-0.90;79.54;100364.81;2733984;87;21188;-61
2021/01/16 18:49:28;;;;;;;21.00;13.75;;;;;;;-0.87;79.15;100363.40;2780649;84;21140;-61
2021/01/16 18:53:36;;;;;;;24.45;13.50;;;;;;;-0.90;78.84;100346.53;2800376;84;21173;-60
2021/01/16 18:57:49;;;;;;;24.98;14.40;;;;;;;-0.91;78.95;100371.78;2819205;84;21133;-62
2021/01/16 19:01:59;;;;;;;20.30;11.15;;;;;;;-0.86;78.50;100365.11;2813837;84;21109;-60